createdAt,value
2023-06-27T00:48:05.515Z,1.10
2023-06-27T00:51:22.772Z,1.20
2023-06-27T00:54:54.980Z,1.00
2023-06-27T00:57:53.041Z,1.50
2023-06-27T01:00:34.873Z,1.20
2023-06-27T01:03:38.743Z,1.50
2023-06-27T02:06:00.583Z,1.50
2023-06-27T02:40:25.641Z,2.20
2023-06-27T02:43:57.616Z,2.10
2023-06-27T02:47:39.445Z,1.80
2023-06-27T02:50:35.702Z,2.10
2023-06-27T02:53:29.249Z,2.00
2023-06-27T02:56:53.329Z,1.70
2023-06-27T03:24:30.648Z,2.40
2023-06-27T03:34:11.576Z,2.70
2023-06-27T05:02:54.848Z,2.30
2023-06-27T05:10:31.813Z,2.40
2023-06-27T05:17:14.959Z,2.00
2023-06-27T05:20:37.278Z,2.20
2023-06-27T05:23:24.786Z,2.60
2023-06-27T05:26:03.276Z,2.50
2023-06-27T05:28:38.836Z,2.40
2023-06-27T05:31:45.458Z,2.30
2023-06-27T05:34:29.924Z,2.30
2023-06-27T05:37:34.048Z,2.40
2023-06-27T05:45:01.022Z,2.30
2023-06-27T05:48:09.008Z,2.10
2023-06-27T05:54:40.295Z,1.90
2023-06-27T05:57:26.118Z,2.00
2023-06-27T06:09:37.260Z,1.90
2023-06-27T06:17:05.596Z,1.70
2023-06-27T06:20:47.498Z,1.80
2023-06-27T06:34:17.788Z,2.00
2023-06-27T06:42:05.324Z,1.70
2023-06-27T06:57:50.660Z,1.50
2023-06-27T07:09:35.287Z,1.40
2023-06-27T07:35:59.202Z,1.20
2023-06-27T07:53:24.982Z,1.30
2023-06-27T08:26:20.095Z,1.10
2023-06-27T08:42:04.209Z,1.30
2023-06-27T08:52:53.732Z,1.20
2023-06-27T08:56:11.782Z,1.50
2023-06-27T08:59:25.243Z,1.60
2023-06-27T09:02:02.860Z,1.40
2023-06-27T09:04:51.409Z,1.40
2023-06-27T09:32:57.305Z,1.90
2023-06-27T09:40:30.967Z,1.80
2023-06-27T09:43:07.166Z,1.70
2023-06-27T09:57:51.443Z,2.10
2023-06-27T10:01:02.043Z,1.60
2023-06-27T10:08:00.236Z,2.30
2023-06-27T10:13:59.865Z,3.40
2023-06-27T10:16:54.448Z,2.20
2023-06-27T10:19:39.552Z,2.40
2023-06-27T10:26:59.571Z,2.30
2023-06-27T10:34:03.937Z,2.60
2023-06-27T10:36:59.196Z,2.30
2023-06-27T10:40:09.361Z,2.10
2023-06-27T10:42:37.882Z,2.40
2023-06-27T10:45:05.513Z,2.40
2023-06-27T10:47:39.676Z,3.00
2023-06-27T10:50:11.147Z,2.60
2023-06-27T10:52:40.230Z,2.60
2023-06-27T10:55:20.870Z,2.20
2023-06-27T10:57:52.069Z,2.40
2023-06-27T11:00:30.076Z,2.50
2023-06-27T11:02:58.854Z,2.70
2023-06-27T11:06:00.143Z,2.70
2023-06-27T11:08:35.220Z,2.70
2023-06-27T11:11:06.918Z,2.60
2023-06-27T11:13:41.306Z,2.30
2023-06-27T11:16:14.488Z,2.20
2023-06-27T11:18:42.659Z,2.60
2023-06-27T11:21:14.386Z,2.50
2023-06-27T11:23:47.456Z,3.00
2023-06-27T11:26:17.068Z,2.80
2023-06-27T11:28:45.975Z,2.40
2023-06-27T11:31:13.837Z,2.10
2023-06-27T11:38:32.390Z,3.00
2023-06-27T11:40:59.436Z,2.70
2023-06-27T11:43:28.848Z,2.90
2023-06-27T11:46:14.874Z,2.70
2023-06-27T11:53:11.909Z,2.90
2023-06-27T11:56:40.731Z,2.70
2023-06-27T11:59:14.781Z,2.60
2023-06-27T12:01:46.676Z,2.20
2023-06-27T12:04:14.748Z,2.70
2023-06-27T12:06:42.952Z,2.20
2023-06-27T12:09:29.630Z,2.50
2023-06-27T12:12:04.970Z,2.80
2023-06-27T12:14:33.008Z,2.50
2023-06-27T12:17:06.691Z,2.20
2023-06-27T12:19:35.596Z,2.50
2023-06-27T12:22:04.043Z,2.70
2023-06-27T12:24:32.069Z,2.50
2023-06-27T12:27:01.910Z,2.50
2023-06-27T12:29:39.760Z,2.70
2023-06-27T12:32:43.374Z,2.50
2023-06-27T12:36:16.841Z,2.50
2023-06-27T12:44:54.537Z,2.20
2023-06-27T12:47:32.779Z,2.10
2023-06-27T12:50:23.725Z,2.50
2023-06-27T12:53:06.306Z,2.60
2023-06-27T12:55:50.234Z,3.00
2023-06-27T12:59:46.363Z,2.40
2023-06-27T13:05:54.634Z,2.50
2023-06-27T13:09:22.343Z,2.50
2023-06-27T13:12:01.544Z,2.60
2023-06-27T13:15:01.320Z,2.60
2023-06-27T13:22:36.187Z,2.40
2023-06-27T13:30:17.853Z,2.30
2023-06-27T13:32:57.990Z,2.50
2023-06-27T13:35:40.199Z,2.10
2023-06-27T13:38:43.381Z,2.80
2023-06-27T13:41:32.458Z,2.10
2023-06-27T13:44:29.331Z,2.30
2023-06-27T13:47:24.797Z,2.60
2023-06-27T13:51:05.757Z,2.40
2023-06-27T13:54:44.029Z,2.20
2023-06-27T13:58:05.860Z,2.00
2023-06-27T14:06:14.728Z,2.10
2023-06-27T14:09:03.884Z,2.30
2023-06-27T14:16:34.070Z,2.60
2023-06-27T14:19:13.413Z,2.40
2023-06-27T14:25:48.629Z,2.70
2023-06-27T14:32:51.307Z,4.20
2023-06-27T14:46:00.382Z,3.80
2023-06-27T14:48:59.592Z,3.20
2023-06-27T14:52:03.240Z,2.10
2023-06-27T14:55:32.626Z,2.50
2023-06-27T14:58:13.476Z,2.80
2023-06-27T15:01:07.221Z,2.70
2023-06-27T15:13:45.289Z,2.30
2023-06-27T15:17:19.787Z,2.40
2023-06-27T15:31:38.384Z,2.60
2023-06-27T15:48:47.351Z,2.50
2023-06-27T15:53:01.959Z,3.10
2023-06-27T16:03:32.533Z,3.10
2023-06-27T16:06:42.175Z,2.60
2023-06-27T16:09:44.617Z,3.20
2023-06-27T16:18:02.626Z,2.70
2023-06-27T16:22:22.768Z,2.60
2023-06-27T16:25:37.073Z,2.60
2023-06-27T16:28:47.655Z,3.00
2023-06-27T16:44:50.310Z,2.10
2023-06-27T16:48:04.717Z,2.30
2023-06-27T16:51:17.152Z,2.50
2023-06-27T16:54:01.822Z,2.70
2023-06-27T16:56:44.131Z,2.70
2023-06-27T17:05:32.402Z,2.70
2023-06-27T17:09:02.109Z,2.60
2023-06-27T17:11:47.796Z,2.20
2023-06-27T17:14:37.263Z,2.40
2023-06-27T17:17:27.369Z,2.40
2023-06-27T17:30:38.187Z,2.60
2023-06-27T17:33:44.143Z,2.20
2023-06-27T17:50:25.427Z,1.80
2023-06-27T17:53:23.390Z,2.00
2023-06-27T18:05:52.397Z,2.20
2023-06-27T18:23:17.698Z,3.30
2023-06-27T18:35:02.536Z,2.60
2023-06-27T19:23:35.871Z,4.60
2023-06-27T19:46:01.478Z,5.20
2023-06-27T19:49:12.097Z,5.50
2023-06-27T19:56:12.254Z,5.50
2023-06-27T19:59:38.544Z,5.20
2023-06-27T20:11:21.393Z,6.50
2023-06-27T20:46:55.770Z,4.60
2023-06-27T20:54:17.170Z,4.30
2023-06-27T20:58:12.532Z,4.10
2023-06-27T21:01:28.599Z,3.90
2023-06-27T21:04:25.310Z,3.90
2023-06-27T21:07:00.222Z,3.60
2023-06-27T21:14:37.273Z,4.10
2023-06-27T21:17:37.112Z,3.90
2023-06-27T21:20:19.858Z,3.40
2023-06-27T21:23:19.778Z,4.10
2023-06-27T21:26:29.245Z,3.60
2023-06-27T21:32:54.923Z,3.70
2023-06-27T21:35:48.183Z,3.10
2023-06-27T21:38:40.466Z,4.10
2023-06-27T21:41:16.162Z,3.80
2023-06-27T21:44:19.011Z,4.50
2023-06-27T21:46:56.039Z,4.50
2023-06-27T21:49:33.073Z,4.00
2023-06-27T21:55:35.177Z,4.60
2023-06-27T21:59:00.556Z,4.50
2023-06-27T22:01:47.637Z,5.90
2023-06-27T22:04:28.423Z,4.90
2023-06-27T22:07:28.301Z,5.40
2023-06-27T22:10:32.404Z,5.80
2023-06-27T22:13:06.626Z,6.10
2023-06-27T22:15:50.644Z,5.50
2023-06-27T22:18:34.050Z,6.50
2023-06-27T22:21:42.470Z,5.80
2023-06-27T22:24:17.813Z,5.60
2023-06-27T22:31:23.496Z,5.60
2023-06-27T22:38:11.653Z,4.80
2023-06-27T22:45:58.020Z,4.50
2023-06-27T22:48:44.927Z,5.60
2023-06-27T22:51:52.714Z,4.90
2023-06-27T22:57:35.305Z,5.80
2023-06-27T23:00:23.988Z,4.70
2023-06-27T23:03:22.943Z,5.20
2023-06-27T23:06:41.707Z,5.10
2023-06-27T23:09:21.111Z,5.70
2023-06-27T23:12:12.152Z,5.60
2023-06-27T23:18:01.357Z,6.00
2023-06-27T23:21:35.518Z,6.10
2023-06-27T23:24:31.950Z,5.10
2023-06-27T23:27:34.858Z,5.60
2023-06-27T23:30:43.490Z,5.20
2023-06-27T23:33:25.221Z,5.80
2023-06-27T23:35:59.508Z,5.20
2023-06-27T23:45:08.631Z,5.60
2023-06-27T23:48:12.830Z,4.80
2023-06-27T23:50:45.209Z,5.40
